createdAt,value
2018-05-23T00:02:54.447Z,12.60
2018-05-23T00:06:00.214Z,12.70
2018-05-23T00:09:05.369Z,12.80
2018-05-23T00:12:11.608Z,12.80
2018-05-23T00:15:17.944Z,12.80
2018-05-23T00:18:24.346Z,12.80
2018-05-23T00:21:30.569Z,12.70
2018-05-23T00:24:36.761Z,12.70
2018-05-23T00:27:43.038Z,12.70
2018-05-23T00:30:49.331Z,12.70
2018-05-23T00:33:55.424Z,12.70
2018-05-23T00:37:01.668Z,12.70
2018-05-23T00:40:07.632Z,12.60
2018-05-23T00:43:13.857Z,12.60
2018-05-23T00:46:20.206Z,12.60
2018-05-23T00:49:25.465Z,12.60
2018-05-23T00:52:31.838Z,12.60
2018-05-23T00:55:49.218Z,12.60
2018-05-23T00:58:55.302Z,12.60
2018-05-23T01:02:01.286Z,12.50
2018-05-23T01:05:07.605Z,12.40
2018-05-23T01:08:13.676Z,12.30
2018-05-23T01:11:19.737Z,12.30
2018-05-23T01:14:25.665Z,12.30
2018-05-23T01:17:31.795Z,12.20
2018-05-23T01:20:38.088Z,12.10
2018-05-23T01:23:43.406Z,12.10
2018-05-23T01:26:49.657Z,12.10
2018-05-23T01:29:55.889Z,12.00
2018-05-23T01:33:02.099Z,11.70
2018-05-23T01:36:08.224Z,11.60
2018-05-23T01:39:14.209Z,11.60
2018-05-23T01:42:20.396Z,11.60
2018-05-23T01:45:26.382Z,11.60
2018-05-23T01:48:32.415Z,11.70
2018-05-23T01:51:38.737Z,11.70
2018-05-23T01:54:45.006Z,11.90
2018-05-23T01:57:51.193Z,11.90
2018-05-23T02:00:57.330Z,12.00
2018-05-23T02:04:02.700Z,12.10
2018-05-23T02:07:08.035Z,12.30
2018-05-23T02:10:14.217Z,12.40
2018-05-23T02:13:20.621Z,12.40
2018-05-23T02:16:27.657Z,12.50
2018-05-23T02:19:33.696Z,12.50
2018-05-23T02:22:39.718Z,12.50
2018-05-23T02:25:45.986Z,12.50
2018-05-23T02:28:51.995Z,12.50
2018-05-23T02:31:58.119Z,12.50
2018-05-23T02:35:04.308Z,12.40
2018-05-23T02:38:10.412Z,12.30
2018-05-23T02:41:16.466Z,12.30
2018-05-23T02:44:21.790Z,12.30
2018-05-23T02:47:27.937Z,12.30
2018-05-23T02:50:34.905Z,12.10
2018-05-23T02:53:41.209Z,12.20
2018-05-23T02:56:47.619Z,12.00
2018-05-23T02:59:53.969Z,12.00
2018-05-23T03:03:00.307Z,11.90
2018-05-23T03:06:06.442Z,11.80
2018-05-23T03:09:12.521Z,11.70
2018-05-23T03:12:18.733Z,11.70
2018-05-23T03:15:25.101Z,11.60
2018-05-23T03:18:31.043Z,11.60
2018-05-23T03:21:37.279Z,11.70
2018-05-23T03:24:43.190Z,11.80
2018-05-23T03:27:49.442Z,11.90
2018-05-23T03:30:55.376Z,11.90
2018-05-23T03:34:01.690Z,11.90
2018-05-23T03:37:07.721Z,11.90
2018-05-23T03:40:14.021Z,11.90
2018-05-23T03:43:20.118Z,11.90
2018-05-23T03:46:25.407Z,11.80
2018-05-23T03:49:30.686Z,11.90
2018-05-23T03:52:36.635Z,12.10
2018-05-23T03:55:42.734Z,12.30
2018-05-23T03:58:48.960Z,12.30
2018-05-23T04:02:06.680Z,12.40
2018-05-23T04:05:24.779Z,12.40
2018-05-23T04:08:30.146Z,12.50
2018-05-23T04:11:36.229Z,12.60
2018-05-23T04:14:42.694Z,12.60
2018-05-23T04:17:48.840Z,12.70
2018-05-23T04:20:55.055Z,12.70
2018-05-23T04:24:01.314Z,12.80
2018-05-23T04:27:07.421Z,12.80
2018-05-23T04:30:12.726Z,12.90
2018-05-23T04:33:18.830Z,13.00
2018-05-23T04:36:25.117Z,13.10
2018-05-23T04:39:31.219Z,13.10
2018-05-23T04:42:37.420Z,13.30
2018-05-23T04:45:43.709Z,13.30
2018-05-23T04:48:50.100Z,13.30
2018-05-23T04:51:56.367Z,13.30
2018-05-23T04:55:02.367Z,13.30
2018-05-23T04:58:08.531Z,13.40
2018-05-23T05:01:14.453Z,13.50
2018-05-23T05:04:19.994Z,13.60
2018-05-23T05:07:26.204Z,13.70
2018-05-23T05:10:31.589Z,13.70
2018-05-23T05:13:37.744Z,13.80
2018-05-23T05:16:43.810Z,14.00
2018-05-23T05:19:49.117Z,14.00
2018-05-23T05:22:55.368Z,14.00
2018-05-23T05:26:01.379Z,14.10
2018-05-23T05:29:07.388Z,14.20
2018-05-23T05:32:13.519Z,14.30
2018-05-23T05:35:19.908Z,14.40
2018-05-23T05:38:26.277Z,14.50
2018-05-23T05:41:32.461Z,14.80
2018-05-23T05:44:38.411Z,14.80
2018-05-23T05:47:44.297Z,14.80
2018-05-23T05:50:51.365Z,14.90
2018-05-23T05:53:57.298Z,14.80
2018-05-23T05:57:11.620Z,15.10
2018-05-23T06:00:35.696Z,15.10
2018-05-23T06:03:41.916Z,15.20
2018-05-23T06:06:48.075Z,15.50
2018-05-23T06:09:54.515Z,15.40
2018-05-23T06:13:00.524Z,15.50
2018-05-23T06:16:06.675Z,15.60
2018-05-23T06:19:12.823Z,15.70
2018-05-23T06:22:18.893Z,15.70
2018-05-23T06:25:24.909Z,15.80
2018-05-23T06:28:31.066Z,15.80
2018-05-23T06:31:37.217Z,15.90
2018-05-23T06:34:43.412Z,15.80
2018-05-23T06:37:49.629Z,16.10
2018-05-23T06:40:55.568Z,16.10
2018-05-23T06:44:01.475Z,16.10
2018-05-23T06:47:08.264Z,16.20
2018-05-23T06:50:14.394Z,16.20
2018-05-23T06:53:20.712Z,16.30
2018-05-23T06:56:26.717Z,16.40
2018-05-23T06:59:32.733Z,16.40
2018-05-23T07:02:38.695Z,16.30
2018-05-23T07:05:43.806Z,16.40
2018-05-23T07:08:50.099Z,16.60
2018-05-23T07:11:55.240Z,16.60
2018-05-23T07:15:01.228Z,16.70
2018-05-23T07:18:06.520Z,16.90
2018-05-23T07:21:12.528Z,17.40
2018-05-23T07:24:18.923Z,18.30
2018-05-23T07:27:24.735Z,18.30
2018-05-23T07:30:30.642Z,19.10
2018-05-23T07:33:36.799Z,19.90
2018-05-23T07:36:42.948Z,20.20
2018-05-23T07:39:48.915Z,20.10
2018-05-23T07:42:54.212Z,20.10
2018-05-23T07:45:59.582Z,20.30
2018-05-23T07:49:05.415Z,20.20
2018-05-23T07:52:11.615Z,20.10
2018-05-23T07:55:17.596Z,20.50
2018-05-23T07:58:23.919Z,20.70
2018-05-23T08:01:30.368Z,20.50
2018-05-23T08:04:37.147Z,20.50
2018-05-23T08:07:43.145Z,20.40
2018-05-23T08:10:49.045Z,20.50
2018-05-23T08:13:55.225Z,21.10
2018-05-23T08:17:01.282Z,21.10
2018-05-23T08:20:07.293Z,21.70
2018-05-23T08:23:13.502Z,22.30
2018-05-23T08:26:20.302Z,22.70
2018-05-23T08:29:26.586Z,22.30
2018-05-23T08:32:32.718Z,22.30
2018-05-23T08:35:38.619Z,24.00
2018-05-23T08:38:44.785Z,24.00
2018-05-23T08:41:51.620Z,24.90
2018-05-23T08:44:57.817Z,25.10
2018-05-23T08:48:03.981Z,25.00
2018-05-23T08:51:09.124Z,25.00
2018-05-23T08:54:15.031Z,24.60
2018-05-23T08:57:21.013Z,24.60
2018-05-23T09:00:27.141Z,26.00
2018-05-23T09:03:33.281Z,25.40
2018-05-23T09:06:39.277Z,25.10
2018-05-23T09:09:46.179Z,26.80
2018-05-23T09:12:52.131Z,26.80
2018-05-23T09:15:58.207Z,27.30
2018-05-23T09:19:04.079Z,27.50
2018-05-23T09:22:10.106Z,28.30
2018-05-23T09:25:16.067Z,28.20
2018-05-23T09:28:22.095Z,29.10
2018-05-23T09:31:28.499Z,28.30
2018-05-23T09:34:34.582Z,28.20
2018-05-23T09:37:40.890Z,28.10
2018-05-23T09:40:46.539Z,27.90
2018-05-23T09:43:52.680Z,27.80
2018-05-23T09:46:58.798Z,28.90
2018-05-23T09:50:05.679Z,28.20
2018-05-23T09:53:11.859Z,28.90
2018-05-23T09:56:17.873Z,28.90
2018-05-23T09:59:23.955Z,28.90
2018-05-23T10:02:30.014Z,29.20
2018-05-23T10:05:36.142Z,27.50
2018-05-23T10:08:42.265Z,27.40
2018-05-23T10:11:48.486Z,25.90
2018-05-23T10:14:54.620Z,25.30
2018-05-23T10:18:00.685Z,25.30
2018-05-23T10:21:06.861Z,27.10
2018-05-23T10:24:12.929Z,27.80
2018-05-23T10:27:18.040Z,27.70
2018-05-23T10:30:24.050Z,26.90
2018-05-23T10:33:30.406Z,26.90
2018-05-23T10:36:36.604Z,27.50
2018-05-23T10:39:42.632Z,28.60
2018-05-23T10:42:48.655Z,28.90
2018-05-23T10:45:54.891Z,28.70
2018-05-23T10:49:01.249Z,28.70
2018-05-23T10:52:07.273Z,27.80
2018-05-23T10:55:14.021Z,27.60
2018-05-23T10:58:20.343Z,27.60
2018-05-23T11:01:26.317Z,25.70
2018-05-23T11:04:31.571Z,25.70
2018-05-23T11:07:37.499Z,25.70
2018-05-23T11:10:43.595Z,26.80
2018-05-23T11:13:49.630Z,28.30
2018-05-23T11:16:55.681Z,29.30
2018-05-23T11:20:01.970Z,30.30
2018-05-23T11:23:08.351Z,30.20
2018-05-23T11:26:15.225Z,31.20
2018-05-23T11:29:21.516Z,32.00
2018-05-23T11:32:27.463Z,31.90
2018-05-23T11:35:33.499Z,32.20
2018-05-23T11:38:39.517Z,32.20
2018-05-23T11:41:45.562Z,32.20
2018-05-23T11:44:51.820Z,29.70
2018-05-23T11:47:57.906Z,29.70
2018-05-23T11:51:03.711Z,28.90
2018-05-23T11:54:09.688Z,30.10
2018-05-23T11:57:15.834Z,30.00
2018-05-23T12:00:22.176Z,31.00
2018-05-23T12:03:29.343Z,32.40
2018-05-23T12:06:35.473Z,32.40
2018-05-23T12:09:41.415Z,32.40
2018-05-23T12:12:47.429Z,32.10
2018-05-23T12:15:53.580Z,31.80
2018-05-23T12:18:59.824Z,32.90
2018-05-23T12:22:05.997Z,33.40
2018-05-23T12:25:11.974Z,31.80
2018-05-23T12:28:18.066Z,29.80
2018-05-23T12:31:24.172Z,30.40
2018-05-23T12:34:30.497Z,31.70
2018-05-23T12:37:36.806Z,31.80
2018-05-23T12:40:41.984Z,32.10
2018-05-23T12:43:48.197Z,31.30
2018-05-23T12:46:54.408Z,30.50
2018-05-23T12:50:00.739Z,28.50
2018-05-23T12:53:06.692Z,27.60
2018-05-23T12:56:12.446Z,27.50
2018-05-23T12:59:18.461Z,27.90
2018-05-23T13:02:24.384Z,29.00
2018-05-23T13:05:30.594Z,29.30
2018-05-23T13:08:36.617Z,29.30
2018-05-23T13:11:41.970Z,29.40
2018-05-23T13:14:48.401Z,29.80
2018-05-23T13:17:55.403Z,29.00
2018-05-23T13:21:01.932Z,27.60
2018-05-23T13:24:08.134Z,27.50
2018-05-23T13:27:14.125Z,29.00
2018-05-23T13:30:20.238Z,30.80
2018-05-23T13:33:25.582Z,32.60
2018-05-23T13:36:31.798Z,33.00
2018-05-23T13:39:37.866Z,32.90
2018-05-23T13:42:43.827Z,31.30
2018-05-23T13:45:49.855Z,31.30
2018-05-23T13:48:55.915Z,30.30
2018-05-23T13:52:08.909Z,30.60
2018-05-23T13:55:14.838Z,30.50
2018-05-23T13:58:20.832Z,30.10
2018-05-23T14:01:26.885Z,32.20
2018-05-23T14:04:32.862Z,32.10
2018-05-23T14:07:39.003Z,31.80
2018-05-23T14:10:45.037Z,31.40
2018-05-23T14:13:51.061Z,31.30
2018-05-23T14:16:57.112Z,31.50
2018-05-23T14:20:03.121Z,31.50
2018-05-23T14:23:09.301Z,31.00
2018-05-23T14:26:15.532Z,30.00
2018-05-23T14:29:21.643Z,30.00
2018-05-23T14:32:27.783Z,29.30
2018-05-23T14:35:33.108Z,29.20
2018-05-23T14:38:38.895Z,28.60
2018-05-23T14:41:45.009Z,28.80
2018-05-23T14:44:50.516Z,28.60
2018-05-23T14:47:56.455Z,27.90
2018-05-23T14:51:02.495Z,27.40
2018-05-23T14:54:08.687Z,26.40
2018-05-23T14:57:15.399Z,26.10
2018-05-23T15:00:21.493Z,26.00
2018-05-23T15:03:27.553Z,25.90
2018-05-23T15:06:33.750Z,26.30
2018-05-23T15:09:40.150Z,27.40
2018-05-23T15:12:45.442Z,27.40
2018-05-23T15:15:51.496Z,27.20
2018-05-23T15:18:57.493Z,27.00
2018-05-23T15:22:03.730Z,27.80
2018-05-23T15:25:09.835Z,27.80
2018-05-23T15:28:16.226Z,28.70
2018-05-23T15:31:22.341Z,28.70
2018-05-23T15:34:28.508Z,28.70
2018-05-23T15:37:34.080Z,28.80
2018-05-23T15:40:40.060Z,30.30
2018-05-23T15:43:47.747Z,30.10
2018-05-23T15:46:54.626Z,30.10
2018-05-23T15:50:00.834Z,29.70
2018-05-23T15:53:06.750Z,30.30
2018-05-23T15:56:12.760Z,30.30
2018-05-23T15:59:18.737Z,31.30
2018-05-23T16:02:24.883Z,32.00
2018-05-23T16:05:30.961Z,31.50
2018-05-23T16:08:36.255Z,30.60
2018-05-23T16:11:41.506Z,30.10
2018-05-23T16:14:47.524Z,29.10
2018-05-23T16:17:53.737Z,27.20
2018-05-23T16:20:59.788Z,27.20
2018-05-23T16:24:06.063Z,26.60
2018-05-23T16:27:12.031Z,26.60
2018-05-23T16:30:17.486Z,27.30
2018-05-23T16:33:23.464Z,27.80
2018-05-23T16:36:29.609Z,26.70
2018-05-23T16:39:35.698Z,26.70
2018-05-23T16:42:41.801Z,25.10
2018-05-23T16:45:47.864Z,25.00
2018-05-23T16:48:53.947Z,24.30
2018-05-23T16:51:59.709Z,23.70
2018-05-23T16:55:06.076Z,23.20
2018-05-23T16:58:12.969Z,23.00
2018-05-23T17:01:18.892Z,23.00
2018-05-23T17:04:25.007Z,22.90
2018-05-23T17:07:31.310Z,22.90
2018-05-23T17:10:38.110Z,22.30
2018-05-23T17:13:43.838Z,22.30
2018-05-23T17:16:50.782Z,22.00
2018-05-23T17:19:58.863Z,21.70
2018-05-23T17:23:06.092Z,21.20
2018-05-23T17:26:17.360Z,20.90
2018-05-23T17:29:23.569Z,20.20
2018-05-23T17:32:29.500Z,19.50
2018-05-23T17:35:35.998Z,19.00
2018-05-23T17:38:42.928Z,18.60
2018-05-23T17:41:49.808Z,17.80
2018-05-23T17:44:56.984Z,17.70
2018-05-23T17:48:02.939Z,16.80
2018-05-23T17:51:12.008Z,16.80
2018-05-23T17:54:19.124Z,16.50
2018-05-23T17:57:24.362Z,16.40
2018-05-23T18:00:30.354Z,16.10
2018-05-23T18:03:35.719Z,16.00
2018-05-23T18:06:41.793Z,16.00
2018-05-23T18:09:47.851Z,15.90
2018-05-23T18:12:54.183Z,15.90
2018-05-23T18:16:01.201Z,15.80
2018-05-23T18:19:08.461Z,15.80
2018-05-23T18:22:15.003Z,15.70
2018-05-23T18:25:21.218Z,15.60
2018-05-23T18:28:27.493Z,15.60
2018-05-23T18:31:34.281Z,15.60
2018-05-23T18:34:41.609Z,15.50
2018-05-23T18:37:47.547Z,15.50
2018-05-23T18:40:53.893Z,15.70
2018-05-23T18:43:59.860Z,15.70
2018-05-23T18:47:07.786Z,15.70
2018-05-23T18:50:14.762Z,15.70
2018-05-23T18:53:21.005Z,15.70
2018-05-23T18:56:28.447Z,15.50
2018-05-23T18:59:34.689Z,15.40
2018-05-23T19:02:43.242Z,15.30
2018-05-23T19:05:53.045Z,15.20
2018-05-23T19:08:59.030Z,15.20
2018-05-23T19:12:04.759Z,15.20
2018-05-23T19:15:11.279Z,15.10
2018-05-23T19:18:17.241Z,15.10
2018-05-23T19:21:23.294Z,15.10
2018-05-23T19:24:30.360Z,15.00
2018-05-23T19:27:36.464Z,15.00
2018-05-23T19:30:43.594Z,15.00
2018-05-23T19:33:49.835Z,14.80
2018-05-23T19:36:55.860Z,14.80
2018-05-23T19:40:02.180Z,14.80
2018-05-23T19:43:21.016Z,14.70
2018-05-23T19:46:45.186Z,14.60
2018-05-23T19:49:51.594Z,14.30
2018-05-23T19:52:57.737Z,14.30
2018-05-23T19:56:11.555Z,14.20
2018-05-23T19:59:17.954Z,14.10
2018-05-23T20:02:35.159Z,14.10
2018-05-23T20:05:57.343Z,14.00
2018-05-23T20:12:26.708Z,14.00
2018-05-23T20:15:33.358Z,13.80
2018-05-23T20:18:40.044Z,13.60
2018-05-23T20:21:49.968Z,13.70
2018-05-23T20:28:23.000Z,13.70
2018-05-23T20:31:32.465Z,13.70
2018-05-23T20:34:44.606Z,13.60
2018-05-23T20:37:56.497Z,13.50
2018-05-23T20:41:06.883Z,13.50
2018-05-23T20:44:14.177Z,13.40
2018-05-23T20:47:20.572Z,13.40
2018-05-23T20:50:27.811Z,13.30
2018-05-23T20:53:36.402Z,13.20
2018-05-23T20:56:51.928Z,13.30
2018-05-23T21:00:20.417Z,13.40
2018-05-23T21:03:30.471Z,13.40
2018-05-23T21:06:37.364Z,13.50
2018-05-23T21:09:43.463Z,13.50
2018-05-23T21:12:49.823Z,13.50
2018-05-23T21:15:56.022Z,13.50
2018-05-23T21:19:02.097Z,13.50
2018-05-23T21:22:08.056Z,13.50
2018-05-23T21:25:14.430Z,13.60
2018-05-23T21:28:20.550Z,13.60
2018-05-23T21:31:26.850Z,13.70
2018-05-23T21:34:32.824Z,13.90
2018-05-23T21:37:38.660Z,13.90
2018-05-23T21:40:44.866Z,13.80
2018-05-23T21:43:51.130Z,13.70
2018-05-23T21:46:57.371Z,13.70
2018-05-23T21:50:03.480Z,13.70
2018-05-23T21:53:08.972Z,13.60
2018-05-23T21:56:15.205Z,13.40
2018-05-23T21:59:21.539Z,13.40
2018-05-23T22:02:27.540Z,13.40
2018-05-23T22:05:33.423Z,13.40
2018-05-23T22:08:39.802Z,13.20
2018-05-23T22:11:45.917Z,13.10
2018-05-23T22:14:52.246Z,13.10
2018-05-23T22:17:57.525Z,13.00
2018-05-23T22:21:03.982Z,12.80
2018-05-23T22:24:10.403Z,12.80
2018-05-23T22:27:17.325Z,12.80
2018-05-23T22:30:23.468Z,12.80
2018-05-23T22:33:29.674Z,12.80
2018-05-23T22:36:35.010Z,12.80
2018-05-23T22:39:40.778Z,12.80
2018-05-23T22:42:47.091Z,12.70
2018-05-23T22:45:52.426Z,12.60
2018-05-23T22:48:58.632Z,12.50
2018-05-23T22:52:04.888Z,12.50
2018-05-23T22:55:11.125Z,12.50
2018-05-23T22:58:17.349Z,12.50
2018-05-23T23:01:23.480Z,12.40
2018-05-23T23:04:28.748Z,12.40
2018-05-23T23:07:34.720Z,12.20
2018-05-23T23:10:40.770Z,12.20
2018-05-23T23:13:46.910Z,12.00
2018-05-23T23:16:52.720Z,12.00
2018-05-23T23:19:58.903Z,12.00
2018-05-23T23:23:05.199Z,11.80
2018-05-23T23:26:10.452Z,11.80
2018-05-23T23:29:16.696Z,11.60
2018-05-23T23:32:22.775Z,11.60
2018-05-23T23:35:29.078Z,11.50
2018-05-23T23:38:35.231Z,11.50
2018-05-23T23:41:41.553Z,11.70
2018-05-23T23:44:47.592Z,11.70
2018-05-23T23:47:53.851Z,11.80
2018-05-23T23:50:59.811Z,11.70
2018-05-23T23:54:05.954Z,11.70
2018-05-23T23:57:11.915Z,11.60
